sensor_id;sensor_type;location;lat;lon;timestamp;pressure;altitude;pressure_sealevel;temperature;humidity
20111;BME280;10216;42.658;23.248;2022-08-19T00:01:35;93530.06;;;21.36;67.43
20111;BME280;10216;42.658;23.248;2022-08-19T00:04:03;93520.22;;;21.26;67.73
20111;BME280;10216;42.658;23.248;2022-08-19T00:06:29;93525.34;;;21.21;68.75
20111;BME280;10216;42.658;23.248;2022-08-19T00:08:57;93537.31;;;21.17;68.89
20111;BME280;10216;42.658;23.248;2022-08-19T00:11:23;93529.31;;;21.12;69.12
20111;BME280;10216;42.658;23.248;2022-08-19T00:13:49;93529.47;;;21.05;68.93
20111;BME280;10216;42.658;23.248;2022-08-19T00:16:17;93538.09;;;21.06;68.52
20111;BME280;10216;42.658;23.248;2022-08-19T00:18:46;93539.09;;;21.05;68.14
20111;BME280;10216;42.658;23.248;2022-08-19T00:21:12;93539.91;;;21.05;68.04
20111;BME280;10216;42.658;23.248;2022-08-19T00:23:37;93544.34;;;21.05;68.15
20111;BME280;10216;42.658;23.248;2022-08-19T00:26:04;93538.78;;;21.01;68.13
20111;BME280;10216;42.658;23.248;2022-08-19T00:28:30;93535.38;;;21.01;67.73
20111;BME280;10216;42.658;23.248;2022-08-19T00:30:56;93544.47;;;20.98;66.37
20111;BME280;10216;42.658;23.248;2022-08-19T00:33:21;93545.25;;;20.99;66.58
20111;BME280;10216;42.658;23.248;2022-08-19T00:35:47;93539.03;;;21.00;66.35
20111;BME280;10216;42.658;23.248;2022-08-19T00:38:12;93535.03;;;21.09;65.47
20111;BME280;10216;42.658;23.248;2022-08-19T00:40:37;93537.41;;;21.11;65.52
20111;BME280;10216;42.658;23.248;2022-08-19T00:43:08;93528.53;;;21.12;65.52
20111;BME280;10216;42.658;23.248;2022-08-19T00:45:34;93526.72;;;21.12;65.59
20111;BME280;10216;42.658;23.248;2022-08-19T00:48:01;93524.91;;;21.13;65.89
20111;BME280;10216;42.658;23.248;2022-08-19T00:50:30;93520.94;;;21.10;65.80
20111;BME280;10216;42.658;23.248;2022-08-19T00:52:56;93529.81;;;21.09;65.31
20111;BME280;10216;42.658;23.248;2022-08-19T00:55:24;93532.31;;;21.04;65.59
20111;BME280;10216;42.658;23.248;2022-08-19T00:58:00;93521.41;;;21.07;65.63
20111;BME280;10216;42.658;23.248;2022-08-19T01:00:28;93523.44;;;21.05;66.32
20111;BME280;10216;42.658;23.248;2022-08-19T01:02:54;93527.88;;;21.04;67.39
20111;BME280;10216;42.658;23.248;2022-08-19T01:05:23;93521.06;;;21.03;67.61
20111;BME280;10216;42.658;23.248;2022-08-19T01:07:50;93519.94;;;20.99;68.30
20111;BME280;10216;42.658;23.248;2022-08-19T01:10:19;93520.66;;;20.95;67.88
20111;BME280;10216;42.658;23.248;2022-08-19T01:12:47;93524.19;;;20.89;67.33
20111;BME280;10216;42.658;23.248;2022-08-19T01:15:17;93524.66;;;20.86;66.55
20111;BME280;10216;42.658;23.248;2022-08-19T01:17:44;93523.41;;;20.88;67.11
20111;BME280;10216;42.658;23.248;2022-08-19T01:20:12;93527.81;;;20.88;67.90
20111;BME280;10216;42.658;23.248;2022-08-19T01:22:51;93522.50;;;20.83;67.76
20111;BME280;10216;42.658;23.248;2022-08-19T01:25:19;93518.84;;;20.95;64.24
20111;BME280;10216;42.658;23.248;2022-08-19T01:27:49;93512.69;;;21.01;65.44
20111;BME280;10216;42.658;23.248;2022-08-19T01:30:18;93513.00;;;21.05;67.12
20111;BME280;10216;42.658;23.248;2022-08-19T01:32:44;93516.41;;;21.05;67.63
20111;BME280;10216;42.658;23.248;2022-08-19T01:35:13;93514.03;;;21.04;67.93
20111;BME280;10216;42.658;23.248;2022-08-19T01:38:00;93514.72;;;20.99;68.33
20111;BME280;10216;42.658;23.248;2022-08-19T01:40:29;93523.72;;;20.92;69.16
20111;BME280;10216;42.658;23.248;2022-08-19T01:42:57;93524.06;;;20.84;68.53
20111;BME280;10216;42.658;23.248;2022-08-19T01:45:25;93516.59;;;20.76;69.29
20111;BME280;10216;42.658;23.248;2022-08-19T01:47:52;93531.59;;;20.69;68.30
20111;BME280;10216;42.658;23.248;2022-08-19T01:50:18;93537.88;;;20.56;69.14
20111;BME280;10216;42.658;23.248;2022-08-19T01:52:44;93531.66;;;20.45;68.62
20111;BME280;10216;42.658;23.248;2022-08-19T01:55:16;93534.03;;;20.35;69.57
20111;BME280;10216;42.658;23.248;2022-08-19T01:57:44;93541.72;;;20.30;69.92
20111;BME280;10216;42.658;23.248;2022-08-19T02:00:13;93533.88;;;20.18;69.50
20111;BME280;10216;42.658;23.248;2022-08-19T02:02:41;93537.63;;;20.11;70.11
20111;BME280;10216;42.658;23.248;2022-08-19T02:05:06;93532.88;;;20.08;69.80
20111;BME280;10216;42.658;23.248;2022-08-19T02:07:33;93520.28;;;20.05;70.50
20111;BME280;10216;42.658;23.248;2022-08-19T02:10:02;93527.53;;;20.03;71.03
20111;BME280;10216;42.658;23.248;2022-08-19T02:12:28;93524.38;;;20.01;70.97
20111;BME280;10216;42.658;23.248;2022-08-19T02:14:53;93515.41;;;19.97;70.76
20111;BME280;10216;42.658;23.248;2022-08-19T02:17:19;93533.63;;;19.97;71.23
20111;BME280;10216;42.658;23.248;2022-08-19T02:19:45;93527.75;;;19.89;71.27
20111;BME280;10216;42.658;23.248;2022-08-19T02:22:13;93529.00;;;19.87;71.30
20111;BME280;10216;42.658;23.248;2022-08-19T02:24:38;93519.03;;;19.84;72.05
20111;BME280;10216;42.658;23.248;2022-08-19T02:27:04;93522.84;;;19.81;71.48
20111;BME280;10216;42.658;23.248;2022-08-19T02:29:31;93522.31;;;19.79;71.67
20111;BME280;10216;42.658;23.248;2022-08-19T02:31:58;93519.13;;;19.77;72.00
20111;BME280;10216;42.658;23.248;2022-08-19T02:34:24;93522.41;;;19.73;71.92
20111;BME280;10216;42.658;23.248;2022-08-19T02:36:51;93516.25;;;19.67;71.69
20111;BME280;10216;42.658;23.248;2022-08-19T02:39:16;93520.25;;;19.70;72.01
20111;BME280;10216;42.658;23.248;2022-08-19T02:41:41;93523.06;;;19.68;72.22
20111;BME280;10216;42.658;23.248;2022-08-19T02:44:07;93517.63;;;19.70;71.39
20111;BME280;10216;42.658;23.248;2022-08-19T02:46:33;93524.75;;;19.63;71.33
20111;BME280;10216;42.658;23.248;2022-08-19T02:49:04;93520.47;;;19.68;72.52
20111;BME280;10216;42.658;23.248;2022-08-19T02:51:34;93521.25;;;19.69;71.79
20111;BME280;10216;42.658;23.248;2022-08-19T02:54:00;93525.44;;;19.70;72.88
20111;BME280;10216;42.658;23.248;2022-08-19T02:56:26;93531.09;;;19.67;71.83
20111;BME280;10216;42.658;23.248;2022-08-19T02:58:53;93540.81;;;19.60;71.69
20111;BME280;10216;42.658;23.248;2022-08-19T03:01:24;93540.91;;;19.53;71.91
20111;BME280;10216;42.658;23.248;2022-08-19T03:03:51;93540.59;;;19.49;71.61
20111;BME280;10216;42.658;23.248;2022-08-19T03:06:17;93538.84;;;19.43;72.52
20111;BME280;10216;42.658;23.248;2022-08-19T03:08:44;93534.75;;;19.36;71.84
20111;BME280;10216;42.658;23.248;2022-08-19T03:11:22;93530.44;;;19.30;72.40
20111;BME280;10216;42.658;23.248;2022-08-19T03:13:48;93531.53;;;19.22;73.48
20111;BME280;10216;42.658;23.248;2022-08-19T03:16:20;93528.22;;;19.15;73.59
20111;BME280;10216;42.658;23.248;2022-08-19T03:18:46;93525.47;;;19.10;74.43
20111;BME280;10216;42.658;23.248;2022-08-19T03:21:20;93530.91;;;19.08;74.90
20111;BME280;10216;42.658;23.248;2022-08-19T03:23:47;93534.59;;;19.01;75.05
20111;BME280;10216;42.658;23.248;2022-08-19T03:26:13;93534.44;;;18.96;75.11
20111;BME280;10216;42.658;23.248;2022-08-19T03:28:40;93534.13;;;18.92;76.24
20111;BME280;10216;42.658;23.248;2022-08-19T03:31:10;93538.16;;;18.88;76.21
20111;BME280;10216;42.658;23.248;2022-08-19T03:33:37;93536.00;;;18.85;75.64
20111;BME280;10216;42.658;23.248;2022-08-19T03:36:11;93534.19;;;18.86;75.63
20111;BME280;10216;42.658;23.248;2022-08-19T03:38:42;93531.81;;;18.84;75.79
20111;BME280;10216;42.658;23.248;2022-08-19T03:41:13;93531.44;;;18.81;75.35
20111;BME280;10216;42.658;23.248;2022-08-19T03:43:41;93533.25;;;18.80;75.33
20111;BME280;10216;42.658;23.248;2022-08-19T03:46:11;93545.03;;;18.83;76.60
20111;BME280;10216;42.658;23.248;2022-08-19T03:48:38;93546.19;;;18.87;76.48
20111;BME280;10216;42.658;23.248;2022-08-19T03:51:06;93548.00;;;18.86;75.98
20111;BME280;10216;42.658;23.248;2022-08-19T03:53:33;93549.59;;;18.87;76.38
20111;BME280;10216;42.658;23.248;2022-08-19T03:55:59;93551.16;;;18.88;76.58
20111;BME280;10216;42.658;23.248;2022-08-19T03:58:26;93560.00;;;18.87;75.85
20111;BME280;10216;42.658;23.248;2022-08-19T04:00:54;93561.34;;;18.90;75.89
20111;BME280;10216;42.658;23.248;2022-08-19T04:03:20;93564.88;;;18.95;76.01
20111;BME280;10216;42.658;23.248;2022-08-19T04:05:46;93570.09;;;18.95;76.49
20111;BME280;10216;42.658;23.248;2022-08-19T04:08:13;93566.47;;;18.96;75.71
20111;BME280;10216;42.658;23.248;2022-08-19T04:10:41;93561.84;;;18.98;76.30
20111;BME280;10216;42.658;23.248;2022-08-19T04:13:07;93566.19;;;19.04;76.63
20111;BME280;10216;42.658;23.248;2022-08-19T04:15:39;93561.09;;;19.09;76.90
20111;BME280;10216;42.658;23.248;2022-08-19T04:18:07;93560.25;;;19.16;76.57
20111;BME280;10216;42.658;23.248;2022-08-19T04:20:42;93570.19;;;19.19;77.50
20111;BME280;10216;42.658;23.248;2022-08-19T04:23:07;93572.38;;;19.22;76.87
20111;BME280;10216;42.658;23.248;2022-08-19T04:25:40;93568.09;;;19.27;77.66
20111;BME280;10216;42.658;23.248;2022-08-19T04:28:07;93576.81;;;19.33;77.88
20111;BME280;10216;42.658;23.248;2022-08-19T04:30:52;93573.78;;;19.36;77.14
20111;BME280;10216;42.658;23.248;2022-08-19T04:33:22;93571.09;;;19.42;78.18
20111;BME280;10216;42.658;23.248;2022-08-19T04:35:50;93572.25;;;19.46;77.22
20111;BME280;10216;42.658;23.248;2022-08-19T04:38:17;93570.81;;;19.51;77.46
20111;BME280;10216;42.658;23.248;2022-08-19T04:40:46;93571.31;;;19.59;77.18
20111;BME280;10216;42.658;23.248;2022-08-19T04:43:31;93573.56;;;19.67;78.08
20111;BME280;10216;42.658;23.248;2022-08-19T04:45:57;93576.88;;;19.74;78.56
20111;BME280;10216;42.658;23.248;2022-08-19T04:48:23;93573.41;;;19.80;77.70
20111;BME280;10216;42.658;23.248;2022-08-19T04:50:53;93584.53;;;19.87;78.66
20111;BME280;10216;42.658;23.248;2022-08-19T04:53:24;93587.56;;;19.96;79.36
20111;BME280;10216;42.658;23.248;2022-08-19T04:55:50;93575.91;;;19.99;78.87
20111;BME280;10216;42.658;23.248;2022-08-19T04:58:16;93572.88;;;20.02;78.72
20111;BME280;10216;42.658;23.248;2022-08-19T05:00:42;93586.13;;;20.12;77.76
20111;BME280;10216;42.658;23.248;2022-08-19T05:03:09;93583.66;;;20.17;76.87
20111;BME280;10216;42.658;23.248;2022-08-19T05:05:41;93583.56;;;20.23;76.45
20111;BME280;10216;42.658;23.248;2022-08-19T05:08:07;93585.47;;;20.28;75.57
20111;BME280;10216;42.658;23.248;2022-08-19T05:10:37;93585.59;;;20.33;75.77
20111;BME280;10216;42.658;23.248;2022-08-19T05:13:04;93590.50;;;20.41;75.61
20111;BME280;10216;42.658;23.248;2022-08-19T05:15:30;93589.94;;;20.51;75.25
20111;BME280;10216;42.658;23.248;2022-08-19T05:17:56;93582.56;;;20.59;75.38
20111;BME280;10216;42.658;23.248;2022-08-19T05:20:40;93582.44;;;20.66;75.43
20111;BME280;10216;42.658;23.248;2022-08-19T05:23:24;93594.34;;;20.74;74.74
20111;BME280;10216;42.658;23.248;2022-08-19T05:25:50;93590.03;;;20.79;72.95
20111;BME280;10216;42.658;23.248;2022-08-19T05:28:17;93587.28;;;20.86;72.84
20111;BME280;10216;42.658;23.248;2022-08-19T05:30:42;93588.19;;;20.91;71.71
20111;BME280;10216;42.658;23.248;2022-08-19T05:33:10;93589.97;;;21.02;72.48
20111;BME280;10216;42.658;23.248;2022-08-19T05:35:40;93593.94;;;21.05;71.15
20111;BME280;10216;42.658;23.248;2022-08-19T05:38:07;93586.31;;;21.15;70.82
20111;BME280;10216;42.658;23.248;2022-08-19T05:40:37;93586.78;;;21.24;70.22
20111;BME280;10216;42.658;23.248;2022-08-19T05:43:05;93587.09;;;21.27;69.78
20111;BME280;10216;42.658;23.248;2022-08-19T05:45:31;93590.00;;;21.42;69.13
20111;BME280;10216;42.658;23.248;2022-08-19T05:47:57;93588.53;;;21.47;68.73
20111;BME280;10216;42.658;23.248;2022-08-19T05:50:24;93586.41;;;21.60;68.34
20111;BME280;10216;42.658;23.248;2022-08-19T05:52:50;93590.56;;;21.73;68.15
20111;BME280;10216;42.658;23.248;2022-08-19T05:55:16;93591.75;;;21.82;69.39
20111;BME280;10216;42.658;23.248;2022-08-19T05:57:41;93590.31;;;21.91;68.66
20111;BME280;10216;42.658;23.248;2022-08-19T06:00:07;93596.34;;;22.03;68.57
20111;BME280;10216;42.658;23.248;2022-08-19T06:02:35;93595.47;;;22.14;68.42
20111;BME280;10216;42.658;23.248;2022-08-19T06:05:05;93603.47;;;22.25;67.86
20111;BME280;10216;42.658;23.248;2022-08-19T06:07:35;93599.56;;;22.44;68.17
20111;BME280;10216;42.658;23.248;2022-08-19T06:10:02;93606.28;;;22.56;68.07
20111;BME280;10216;42.658;23.248;2022-08-19T06:12:29;93604.41;;;22.69;65.88
20111;BME280;10216;42.658;23.248;2022-08-19T06:14:58;93601.75;;;22.85;65.42
20111;BME280;10216;42.658;23.248;2022-08-19T06:17:24;93606.91;;;22.97;64.55
20111;BME280;10216;42.658;23.248;2022-08-19T06:19:50;93605.19;;;23.08;65.32
20111;BME280;10216;42.658;23.248;2022-08-19T06:22:16;93598.75;;;23.15;65.03
20111;BME280;10216;42.658;23.248;2022-08-19T06:24:41;93603.69;;;23.33;65.11
20111;BME280;10216;42.658;23.248;2022-08-19T06:27:07;93600.94;;;23.45;63.58
20111;BME280;10216;42.658;23.248;2022-08-19T06:29:33;93597.59;;;23.50;62.84
20111;BME280;10216;42.658;23.248;2022-08-19T06:32:02;93601.91;;;23.61;62.17
20111;BME280;10216;42.658;23.248;2022-08-19T06:34:30;93613.88;;;23.79;62.60
20111;BME280;10216;42.658;23.248;2022-08-19T06:36:57;93598.31;;;23.94;63.37
20111;BME280;10216;42.658;23.248;2022-08-19T06:39:29;93598.09;;;24.00;62.76
20111;BME280;10216;42.658;23.248;2022-08-19T06:41:58;93601.66;;;24.16;62.26
20111;BME280;10216;42.658;23.248;2022-08-19T06:44:27;93600.97;;;24.26;61.83
20111;BME280;10216;42.658;23.248;2022-08-19T06:46:54;93605.25;;;24.37;61.88
20111;BME280;10216;42.658;23.248;2022-08-19T06:49:20;93606.41;;;24.51;60.60
20111;BME280;10216;42.658;23.248;2022-08-19T06:51:47;93604.66;;;24.62;61.31
20111;BME280;10216;42.658;23.248;2022-08-19T06:54:13;93614.50;;;24.81;59.88
20111;BME280;10216;42.658;23.248;2022-08-19T06:56:39;93613.22;;;24.89;59.27
20111;BME280;10216;42.658;23.248;2022-08-19T06:59:10;93614.94;;;25.05;59.51
20111;BME280;10216;42.658;23.248;2022-08-19T07:01:37;93613.66;;;25.18;59.07
20111;BME280;10216;42.658;23.248;2022-08-19T07:04:06;93620.34;;;25.36;58.16
20111;BME280;10216;42.658;23.248;2022-08-19T07:06:32;93614.06;;;25.47;57.23
20111;BME280;10216;42.658;23.248;2022-08-19T07:08:57;93611.50;;;25.67;57.76
20111;BME280;10216;42.658;23.248;2022-08-19T07:11:24;93622.59;;;25.79;56.53
20111;BME280;10216;42.658;23.248;2022-08-19T07:13:49;93623.44;;;26.05;56.46
20111;BME280;10216;42.658;23.248;2022-08-19T07:16:17;93616.34;;;26.21;54.73
20111;BME280;10216;42.658;23.248;2022-08-19T07:18:45;93625.31;;;26.25;54.28
20111;BME280;10216;42.658;23.248;2022-08-19T07:21:17;93626.91;;;26.41;53.48
20111;BME280;10216;42.658;23.248;2022-08-19T07:23:43;93626.63;;;26.68;53.48
20111;BME280;10216;42.658;23.248;2022-08-19T07:26:48;93627.94;;;26.80;52.56
20111;BME280;10216;42.658;23.248;2022-08-19T07:29:07;93618.72;;;26.83;52.55
20111;BME280;10216;42.658;23.248;2022-08-19T07:31:33;93625.56;;;26.89;51.19
20111;BME280;10216;42.658;23.248;2022-08-19T07:34:03;93627.38;;;27.09;51.93
20111;BME280;10216;42.658;23.248;2022-08-19T07:36:33;93625.50;;;27.30;52.28
20111;BME280;10216;42.658;23.248;2022-08-19T07:39:04;93629.66;;;27.41;51.32
20111;BME280;10216;42.658;23.248;2022-08-19T07:41:30;93625.38;;;27.65;52.03
20111;BME280;10216;42.658;23.248;2022-08-19T07:43:57;93623.69;;;27.84;51.33
20111;BME280;10216;42.658;23.248;2022-08-19T07:46:25;93624.41;;;28.00;49.84
20111;BME280;10216;42.658;23.248;2022-08-19T07:48:51;93628.78;;;28.20;49.64
20111;BME280;10216;42.658;23.248;2022-08-19T07:51:20;93621.81;;;28.34;49.76
20111;BME280;10216;42.658;23.248;2022-08-19T07:53:47;93635.81;;;28.34;49.17
20111;BME280;10216;42.658;23.248;2022-08-19T07:56:14;93625.09;;;28.55;49.92
20111;BME280;10216;42.658;23.248;2022-08-19T07:58:44;93630.50;;;28.68;49.14
20111;BME280;10216;42.658;23.248;2022-08-19T08:01:18;93631.22;;;28.84;48.21
20111;BME280;10216;42.658;23.248;2022-08-19T08:03:44;93631.78;;;28.81;46.38
20111;BME280;10216;42.658;23.248;2022-08-19T08:06:28;93631.91;;;29.19;47.50
20111;BME280;10216;42.658;23.248;2022-08-19T08:09:13;93631.41;;;29.45;47.22
20111;BME280;10216;42.658;23.248;2022-08-19T08:11:51;93626.66;;;29.66;47.05
20111;BME280;10216;42.658;23.248;2022-08-19T08:14:21;93626.56;;;29.95;45.57
20111;BME280;10216;42.658;23.248;2022-08-19T08:16:48;93625.19;;;29.98;44.31
20111;BME280;10216;42.658;23.248;2022-08-19T08:19:17;93625.56;;;30.28;44.10
20111;BME280;10216;42.658;23.248;2022-08-19T08:21:44;93619.13;;;30.16;44.44
20111;BME280;10216;42.658;23.248;2022-08-19T08:24:09;93621.19;;;30.38;41.57
20111;BME280;10216;42.658;23.248;2022-08-19T08:26:35;93625.66;;;30.75;42.39
20111;BME280;10216;42.658;23.248;2022-08-19T08:29:01;93622.81;;;31.17;41.26
20111;BME280;10216;42.658;23.248;2022-08-19T08:31:26;93621.13;;;31.35;41.78
20111;BME280;10216;42.658;23.248;2022-08-19T08:33:52;93613.16;;;31.90;39.41
20111;BME280;10216;42.658;23.248;2022-08-19T08:36:17;93615.25;;;32.29;38.55
20111;BME280;10216;42.658;23.248;2022-08-19T08:38:43;93614.53;;;32.59;37.83
20111;BME280;10216;42.658;23.248;2022-08-19T08:41:31;93617.81;;;33.09;37.19
20111;BME280;10216;42.658;23.248;2022-08-19T08:44:00;93616.31;;;33.65;36.31
20111;BME280;10216;42.658;23.248;2022-08-19T08:46:51;93612.94;;;33.82;35.38
20111;BME280;10216;42.658;23.248;2022-08-19T08:49:29;93612.81;;;34.04;36.65
20111;BME280;10216;42.658;23.248;2022-08-19T08:52:04;93617.09;;;34.22;35.11
20111;BME280;10216;42.658;23.248;2022-08-19T08:54:43;93624.09;;;35.21;34.53
20111;BME280;10216;42.658;23.248;2022-08-19T08:57:13;93620.88;;;35.37;33.38
20111;BME280;10216;42.658;23.248;2022-08-19T08:59:41;93615.25;;;35.59;32.85
20111;BME280;10216;42.658;23.248;2022-08-19T09:02:08;93608.31;;;36.17;32.89
20111;BME280;10216;42.658;23.248;2022-08-19T09:04:35;93608.75;;;36.69;31.93
20111;BME280;10216;42.658;23.248;2022-08-19T09:09:45;93604.59;;;37.74;30.70
20111;BME280;10216;42.658;23.248;2022-08-19T09:17:11;93602.63;;;38.63;28.92
20111;BME280;10216;42.658;23.248;2022-08-19T09:19:54;93600.72;;;38.91;28.49
20111;BME280;10216;42.658;23.248;2022-08-19T09:22:20;93601.03;;;39.02;28.07
20111;BME280;10216;42.658;23.248;2022-08-19T09:24:50;93604.47;;;39.46;28.36
20111;BME280;10216;42.658;23.248;2022-08-19T09:27:18;93602.06;;;39.29;25.85
20111;BME280;10216;42.658;23.248;2022-08-19T09:29:43;93597.34;;;39.38;27.37
20111;BME280;10216;42.658;23.248;2022-08-19T09:32:11;93606.38;;;40.12;27.53
20111;BME280;10216;42.658;23.248;2022-08-19T09:34:37;93597.06;;;40.25;26.11
20111;BME280;10216;42.658;23.248;2022-08-19T09:37:02;93590.69;;;40.72;26.60
20111;BME280;10216;42.658;23.248;2022-08-19T09:39:28;93593.19;;;41.22;24.96
20111;BME280;10216;42.658;23.248;2022-08-19T09:41:56;93585.31;;;40.91;24.49
20111;BME280;10216;42.658;23.248;2022-08-19T09:44:21;93587.66;;;41.15;25.61
20111;BME280;10216;42.658;23.248;2022-08-19T09:46:46;93585.16;;;40.65;24.81
20111;BME280;10216;42.658;23.248;2022-08-19T09:49:12;93593.38;;;40.52;24.08
20111;BME280;10216;42.658;23.248;2022-08-19T09:51:37;93586.97;;;41.18;24.38
20111;BME280;10216;42.658;23.248;2022-08-19T09:54:03;93593.69;;;42.30;24.63
20111;BME280;10216;42.658;23.248;2022-08-19T09:56:29;93585.50;;;42.23;24.53
20111;BME280;10216;42.658;23.248;2022-08-19T09:58:58;93591.03;;;42.97;24.28
20111;BME280;10216;42.658;23.248;2022-08-19T10:01:26;93585.41;;;41.89;22.88
20111;BME280;10216;42.658;23.248;2022-08-19T10:03:55;93580.69;;;42.72;23.32
20111;BME280;10216;42.658;23.248;2022-08-19T10:06:23;93578.69;;;43.84;23.10
20111;BME280;10216;42.658;23.248;2022-08-19T10:08:50;93578.16;;;44.22;21.39
20111;BME280;10216;42.658;23.248;2022-08-19T10:11:18;93570.81;;;44.26;21.16
20111;BME280;10216;42.658;23.248;2022-08-19T10:13:44;93569.81;;;44.56;22.16
20111;BME280;10216;42.658;23.248;2022-08-19T10:16:16;93576.09;;;44.78;21.08
20111;BME280;10216;42.658;23.248;2022-08-19T10:18:44;93565.19;;;44.67;21.73
20111;BME280;10216;42.658;23.248;2022-08-19T10:21:13;93558.31;;;45.05;21.15
20111;BME280;10216;42.658;23.248;2022-08-19T10:23:41;93567.38;;;44.33;20.83
20111;BME280;10216;42.658;23.248;2022-08-19T10:26:13;93565.56;;;44.58;21.46
20111;BME280;10216;42.658;23.248;2022-08-19T10:28:39;93566.44;;;44.84;21.47
20111;BME280;10216;42.658;23.248;2022-08-19T10:31:14;93569.25;;;45.47;20.57
20111;BME280;10216;42.658;23.248;2022-08-19T10:33:40;93563.41;;;45.99;20.29
20111;BME280;10216;42.658;23.248;2022-08-19T10:36:12;93564.53;;;46.12;20.64
20111;BME280;10216;42.658;23.248;2022-08-19T10:38:43;93560.53;;;46.59;19.79
20111;BME280;10216;42.658;23.248;2022-08-19T10:41:15;93553.75;;;45.73;19.57
20111;BME280;10216;42.658;23.248;2022-08-19T10:43:42;93549.84;;;45.70;19.97
20111;BME280;10216;42.658;23.248;2022-08-19T10:46:10;93547.16;;;45.84;20.33
20111;BME280;10216;42.658;23.248;2022-08-19T10:48:35;93554.00;;;46.35;21.38
20111;BME280;10216;42.658;23.248;2022-08-19T10:51:02;93548.09;;;46.61;21.33
20111;BME280;10216;42.658;23.248;2022-08-19T10:53:46;93548.34;;;46.88;20.37
20111;BME280;10216;42.658;23.248;2022-08-19T10:56:12;93556.03;;;46.10;19.72
20111;BME280;10216;42.658;23.248;2022-08-19T10:58:56;93549.81;;;46.09;20.94
20111;BME280;10216;42.658;23.248;2022-08-19T11:01:23;93540.38;;;46.42;20.32
20111;BME280;10216;42.658;23.248;2022-08-19T11:03:49;93553.03;;;47.47;20.77
20111;BME280;10216;42.658;23.248;2022-08-19T11:06:15;93549.56;;;47.43;20.73
20111;BME280;10216;42.658;23.248;2022-08-19T11:08:40;93555.59;;;47.68;20.91
20111;BME280;10216;42.658;23.248;2022-08-19T11:11:07;93549.59;;;47.35;20.94
20111;BME280;10216;42.658;23.248;2022-08-19T11:13:35;93538.16;;;47.03;19.50
20111;BME280;10216;42.658;23.248;2022-08-19T11:16:14;93549.31;;;47.71;19.44
20111;BME280;10216;42.658;23.248;2022-08-19T11:18:44;93546.63;;;48.46;21.25
20111;BME280;10216;42.658;23.248;2022-08-19T11:21:20;93544.38;;;48.41;21.48
20111;BME280;10216;42.658;23.248;2022-08-19T11:23:48;93549.69;;;49.09;19.11
20111;BME280;10216;42.658;23.248;2022-08-19T11:26:14;93546.25;;;48.74;18.87
20111;BME280;10216;42.658;23.248;2022-08-19T11:28:41;93540.97;;;49.44;19.98
20111;BME280;10216;42.658;23.248;2022-08-19T11:31:14;93537.75;;;50.19;19.39
20111;BME280;10216;42.658;23.248;2022-08-19T11:33:40;93544.34;;;50.97;19.24
20111;BME280;10216;42.658;23.248;2022-08-19T11:36:06;93545.31;;;50.71;19.48
20111;BME280;10216;42.658;23.248;2022-08-19T11:38:32;93536.22;;;50.58;17.75
20111;BME280;10216;42.658;23.248;2022-08-19T11:41:01;93530.75;;;50.58;18.41
20111;BME280;10216;42.658;23.248;2022-08-19T11:43:27;93524.56;;;51.26;18.29
20111;BME280;10216;42.658;23.248;2022-08-19T11:45:54;93529.94;;;49.28;17.72
20111;BME280;10216;42.658;23.248;2022-08-19T11:48:21;93518.91;;;49.82;18.66
20111;BME280;10216;42.658;23.248;2022-08-19T11:50:56;93517.00;;;49.55;19.01
20111;BME280;10216;42.658;23.248;2022-08-19T11:53:22;93518.38;;;50.30;17.96
20111;BME280;10216;42.658;23.248;2022-08-19T11:55:48;93525.53;;;50.44;17.32
20111;BME280;10216;42.658;23.248;2022-08-19T11:58:15;93509.69;;;50.15;17.84
20111;BME280;10216;42.658;23.248;2022-08-19T12:00:42;93519.78;;;50.18;19.44
20111;BME280;10216;42.658;23.248;2022-08-19T12:03:10;93505.69;;;51.11;19.83
20111;BME280;10216;42.658;23.248;2022-08-19T12:05:37;93509.31;;;51.41;18.72
20111;BME280;10216;42.658;23.248;2022-08-19T12:08:03;93500.50;;;50.25;18.17
20111;BME280;10216;42.658;23.248;2022-08-19T12:10:28;93501.50;;;51.72;18.45
20111;BME280;10216;42.658;23.248;2022-08-19T12:12:54;93494.19;;;51.98;18.50
20111;BME280;10216;42.658;23.248;2022-08-19T12:15:19;93493.19;;;51.75;17.25
20111;BME280;10216;42.658;23.248;2022-08-19T12:17:45;93488.25;;;51.38;17.64
20111;BME280;10216;42.658;23.248;2022-08-19T12:20:11;93494.91;;;51.69;20.58
20111;BME280;10216;42.658;23.248;2022-08-19T12:22:38;93488.84;;;52.07;17.79
20111;BME280;10216;42.658;23.248;2022-08-19T12:25:09;93483.22;;;51.52;16.82
20111;BME280;10216;42.658;23.248;2022-08-19T12:27:35;93481.66;;;51.97;17.12
20111;BME280;10216;42.658;23.248;2022-08-19T12:30:06;93481.16;;;51.57;17.97
20111;BME280;10216;42.658;23.248;2022-08-19T12:32:33;93484.09;;;50.65;18.10
20111;BME280;10216;42.658;23.248;2022-08-19T12:34:59;93469.81;;;49.75;18.91
20111;BME280;10216;42.658;23.248;2022-08-19T12:37:24;93473.66;;;51.28;17.19
20111;BME280;10216;42.658;23.248;2022-08-19T12:39:50;93482.09;;;51.95;18.14
20111;BME280;10216;42.658;23.248;2022-08-19T12:42:18;93471.50;;;52.10;18.19
20111;BME280;10216;42.658;23.248;2022-08-19T12:44:44;93481.16;;;52.43;16.78
20111;BME280;10216;42.658;23.248;2022-08-19T12:47:12;93473.41;;;52.54;16.81
20111;BME280;10216;42.658;23.248;2022-08-19T12:49:39;93466.94;;;52.99;17.45
20111;BME280;10216;42.658;23.248;2022-08-19T12:52:07;93470.84;;;53.49;18.38
20111;BME280;10216;42.658;23.248;2022-08-19T12:54:34;93470.44;;;53.72;16.46
20111;BME280;10216;42.658;23.248;2022-08-19T12:56:59;93467.06;;;53.08;16.60
20111;BME280;10216;42.658;23.248;2022-08-19T12:59:26;93458.31;;;51.14;17.04
20111;BME280;10216;42.658;23.248;2022-08-19T13:01:51;93454.66;;;51.66;18.09
20111;BME280;10216;42.658;23.248;2022-08-19T13:04:17;93451.88;;;51.53;16.86